sensor_id;sensor_type;location;lat;lon;timestamp;P1;durP1;ratioP1;P2;durP2;ratioP2
24273;SDS011;12392;42.678;23.380;2023-03-31T00:01:27;12.68;;;4.82;;
24273;SDS011;12392;42.678;23.380;2023-03-31T00:03:54;13.45;;;4.70;;
24273;SDS011;12392;42.678;23.380;2023-03-31T00:06:29;10.63;;;5.03;;
24273;SDS011;12392;42.678;23.380;2023-03-31T00:08:55;11.88;;;5.03;;
24273;SDS011;12392;42.678;23.380;2023-03-31T00:11:25;13.45;;;5.38;;
24273;SDS011;12392;42.678;23.380;2023-03-31T00:13:51;14.80;;;5.03;;
24273;SDS011;12392;42.678;23.380;2023-03-31T00:16:17;12.23;;;5.18;;
24273;SDS011;12392;42.678;23.380;2023-03-31T00:18:43;12.25;;;5.53;;
24273;SDS011;12392;42.678;23.380;2023-03-31T00:21:15;16.23;;;5.28;;
24273;SDS011;12392;42.678;23.380;2023-03-31T00:26:24;11.48;;;4.72;;
24273;SDS011;12392;42.678;23.380;2023-03-31T00:28:50;8.65;;;4.35;;
24273;SDS011;12392;42.678;23.380;2023-03-31T00:31:17;13.65;;;5.32;;
24273;SDS011;12392;42.678;23.380;2023-03-31T00:33:43;11.90;;;5.32;;
24273;SDS011;12392;42.678;23.380;2023-03-31T00:36:08;13.05;;;5.63;;
24273;SDS011;12392;42.678;23.380;2023-03-31T00:38:34;23.17;;;5.38;;
24273;SDS011;12392;42.678;23.380;2023-03-31T00:41:00;12.00;;;3.97;;
24273;SDS011;12392;42.678;23.380;2023-03-31T00:43:33;10.73;;;5.28;;
24273;SDS011;12392;42.678;23.380;2023-03-31T00:46:05;13.45;;;5.38;;
24273;SDS011;12392;42.678;23.380;2023-03-31T00:48:39;12.55;;;5.15;;
24273;SDS011;12392;42.678;23.380;2023-03-31T00:51:11;12.88;;;4.65;;
24273;SDS011;12392;42.678;23.380;2023-03-31T00:53:38;10.88;;;4.68;;
24273;SDS011;12392;42.678;23.380;2023-03-31T00:56:06;9.00;;;4.80;;
24273;SDS011;12392;42.678;23.380;2023-03-31T00:58:35;13.82;;;4.82;;
24273;SDS011;12392;42.678;23.380;2023-03-31T01:01:07;8.40;;;4.40;;
24273;SDS011;12392;42.678;23.380;2023-03-31T01:03:35;14.07;;;4.93;;
24273;SDS011;12392;42.678;23.380;2023-03-31T01:06:03;12.25;;;5.47;;
24273;SDS011;12392;42.678;23.380;2023-03-31T01:08:30;11.48;;;4.93;;
24273;SDS011;12392;42.678;23.380;2023-03-31T01:10:57;11.40;;;5.70;;
24273;SDS011;12392;42.678;23.380;2023-03-31T01:13:26;11.77;;;4.40;;
24273;SDS011;12392;42.678;23.380;2023-03-31T01:15:52;10.88;;;5.38;;
24273;SDS011;12392;42.678;23.380;2023-03-31T01:18:17;14.82;;;5.07;;
24273;SDS011;12392;42.678;23.380;2023-03-31T01:34:03;13.95;;;5.57;;
24273;SDS011;12392;42.678;23.380;2023-03-31T01:47:36;18.77;;;8.00;;
24273;SDS011;12392;42.678;23.380;2023-03-31T01:58:36;20.27;;;8.65;;
24273;SDS011;12392;42.678;23.380;2023-03-31T02:01:10;16.08;;;8.40;;
24273;SDS011;12392;42.678;23.380;2023-03-31T02:03:44;15.38;;;7.82;;
24273;SDS011;12392;42.678;23.380;2023-03-31T02:06:22;16.80;;;8.32;;
24273;SDS011;12392;42.678;23.380;2023-03-31T02:08:53;16.85;;;6.93;;
24273;SDS011;12392;42.678;23.380;2023-03-31T02:11:22;16.70;;;7.35;;
24273;SDS011;12392;42.678;23.380;2023-03-31T02:13:49;14.25;;;7.35;;
24273;SDS011;12392;42.678;23.380;2023-03-31T02:16:21;20.90;;;7.90;;
24273;SDS011;12392;42.678;23.380;2023-03-31T02:18:51;16.83;;;7.43;;
24273;SDS011;12392;42.678;23.380;2023-03-31T02:21:18;15.88;;;8.32;;
24273;SDS011;12392;42.678;23.380;2023-03-31T02:23:46;17.23;;;7.88;;
24273;SDS011;12392;42.678;23.380;2023-03-31T02:26:15;14.77;;;6.30;;
24273;SDS011;12392;42.678;23.380;2023-03-31T02:28:44;11.65;;;6.55;;
24273;SDS011;12392;42.678;23.380;2023-03-31T02:33:42;18.95;;;6.70;;
24273;SDS011;12392;42.678;23.380;2023-03-31T02:36:07;22.13;;;8.70;;
24273;SDS011;12392;42.678;23.380;2023-03-31T02:38:35;17.35;;;8.07;;
24273;SDS011;12392;42.678;23.380;2023-03-31T02:41:12;17.38;;;9.73;;
24273;SDS011;12392;42.678;23.380;2023-03-31T02:43:38;20.20;;;9.27;;
24273;SDS011;12392;42.678;23.380;2023-03-31T02:46:04;17.35;;;9.52;;
24273;SDS011;12392;42.678;23.380;2023-03-31T02:48:31;19.83;;;9.77;;
24273;SDS011;12392;42.678;23.380;2023-03-31T02:56:30;18.83;;;8.02;;
24273;SDS011;12392;42.678;23.380;2023-03-31T03:15:07;12.07;;;6.25;;
24273;SDS011;12392;42.678;23.380;2023-03-31T03:17:41;12.52;;;5.80;;
24273;SDS011;12392;42.678;23.380;2023-03-31T03:20:12;15.65;;;6.55;;
24273;SDS011;12392;42.678;23.380;2023-03-31T03:22:40;14.32;;;6.40;;
24273;SDS011;12392;42.678;23.380;2023-03-31T03:25:07;13.13;;;6.50;;
24273;SDS011;12392;42.678;23.380;2023-03-31T03:27:34;12.25;;;5.97;;
24273;SDS011;12392;42.678;23.380;2023-03-31T03:30:01;11.30;;;6.75;;
24273;SDS011;12392;42.678;23.380;2023-03-31T03:32:30;14.93;;;6.55;;
24273;SDS011;12392;42.678;23.380;2023-03-31T03:34:57;12.85;;;6.10;;
24273;SDS011;12392;42.678;23.380;2023-03-31T03:37:27;16.90;;;6.68;;
24273;SDS011;12392;42.678;23.380;2023-03-31T03:39:53;16.20;;;7.18;;
24273;SDS011;12392;42.678;23.380;2023-03-31T03:42:19;12.98;;;7.03;;
24273;SDS011;12392;42.678;23.380;2023-03-31T03:44:45;10.57;;;6.38;;
24273;SDS011;12392;42.678;23.380;2023-03-31T03:47:11;17.08;;;6.57;;
24273;SDS011;12392;42.678;23.380;2023-03-31T03:49:36;19.70;;;9.00;;
24273;SDS011;12392;42.678;23.380;2023-03-31T03:52:02;32.67;;;17.23;;
24273;SDS011;12392;42.678;23.380;2023-03-31T03:54:28;13.02;;;7.53;;
24273;SDS011;12392;42.678;23.380;2023-03-31T03:56:54;20.52;;;8.55;;
24273;SDS011;12392;42.678;23.380;2023-03-31T03:59:20;14.90;;;7.18;;
24273;SDS011;12392;42.678;23.380;2023-03-31T04:01:46;19.40;;;6.90;;
24273;SDS011;12392;42.678;23.380;2023-03-31T04:04:11;13.63;;;5.07;;
24273;SDS011;12392;42.678;23.380;2023-03-31T04:06:37;8.95;;;5.35;;
24273;SDS011;12392;42.678;23.380;2023-03-31T04:09:03;19.20;;;5.22;;
24273;SDS011;12392;42.678;23.380;2023-03-31T04:11:29;16.02;;;4.50;;
24273;SDS011;12392;42.678;23.380;2023-03-31T04:13:55;5.75;;;2.72;;
24273;SDS011;12392;42.678;23.380;2023-03-31T04:16:20;6.13;;;3.53;;
24273;SDS011;12392;42.678;23.380;2023-03-31T04:18:47;10.25;;;3.53;;
24273;SDS011;12392;42.678;23.380;2023-03-31T04:21:13;7.63;;;3.53;;
24273;SDS011;12392;42.678;23.380;2023-03-31T04:23:47;8.05;;;4.00;;
24273;SDS011;12392;42.678;23.380;2023-03-31T04:26:14;14.38;;;4.13;;
24273;SDS011;12392;42.678;23.380;2023-03-31T04:28:41;10.27;;;3.83;;
24273;SDS011;12392;42.678;23.380;2023-03-31T04:31:11;11.93;;;3.83;;
24273;SDS011;12392;42.678;23.380;2023-03-31T04:33:49;9.00;;;4.55;;
24273;SDS011;12392;42.678;23.380;2023-03-31T04:36:16;6.72;;;3.83;;
24273;SDS011;12392;42.678;23.380;2023-03-31T04:38:42;8.38;;;3.65;;
24273;SDS011;12392;42.678;23.380;2023-03-31T04:41:11;7.78;;;3.53;;
24273;SDS011;12392;42.678;23.380;2023-03-31T04:43:38;5.60;;;3.20;;
24273;SDS011;12392;42.678;23.380;2023-03-31T04:46:03;6.55;;;3.45;;
24273;SDS011;12392;42.678;23.380;2023-03-31T04:48:29;8.38;;;3.92;;
24273;SDS011;12392;42.678;23.380;2023-03-31T04:50:55;6.22;;;3.70;;
24273;SDS011;12392;42.678;23.380;2023-03-31T04:53:20;11.80;;;5.10;;
24273;SDS011;12392;42.678;23.380;2023-03-31T04:55:47;9.73;;;4.20;;
24273;SDS011;12392;42.678;23.380;2023-03-31T04:58:13;11.02;;;4.50;;
24273;SDS011;12392;42.678;23.380;2023-03-31T05:00:39;8.32;;;4.03;;
24273;SDS011;12392;42.678;23.380;2023-03-31T05:03:05;9.95;;;3.83;;
24273;SDS011;12392;42.678;23.380;2023-03-31T05:05:31;8.40;;;5.47;;
24273;SDS011;12392;42.678;23.380;2023-03-31T05:07:57;8.00;;;4.07;;
24273;SDS011;12392;42.678;23.380;2023-03-31T05:10:22;9.32;;;3.50;;
24273;SDS011;12392;42.678;23.380;2023-03-31T05:12:48;9.35;;;2.88;;
24273;SDS011;12392;42.678;23.380;2023-03-31T05:15:14;5.57;;;3.08;;
24273;SDS011;12392;42.678;23.380;2023-03-31T05:17:40;5.20;;;3.00;;
24273;SDS011;12392;42.678;23.380;2023-03-31T05:20:06;6.70;;;3.45;;
24273;SDS011;12392;42.678;23.380;2023-03-31T05:22:33;11.30;;;4.05;;
24273;SDS011;12392;42.678;23.380;2023-03-31T05:25:02;6.45;;;3.70;;
24273;SDS011;12392;42.678;23.380;2023-03-31T05:27:29;10.35;;;3.92;;
24273;SDS011;12392;42.678;23.380;2023-03-31T05:29:55;8.13;;;4.05;;
24273;SDS011;12392;42.678;23.380;2023-03-31T05:32:21;9.43;;;4.32;;
24273;SDS011;12392;42.678;23.380;2023-03-31T05:34:46;13.07;;;4.88;;
24273;SDS011;12392;42.678;23.380;2023-03-31T05:37:13;12.20;;;5.47;;
24273;SDS011;12392;42.678;23.380;2023-03-31T05:39:39;10.65;;;5.28;;
24273;SDS011;12392;42.678;23.380;2023-03-31T05:42:05;10.20;;;4.75;;
24273;SDS011;12392;42.678;23.380;2023-03-31T05:44:31;15.88;;;7.35;;
24273;SDS011;12392;42.678;23.380;2023-03-31T05:46:57;59.67;;;20.63;;
24273;SDS011;12392;42.678;23.380;2023-03-31T05:49:22;11.32;;;5.13;;
24273;SDS011;12392;42.678;23.380;2023-03-31T05:51:48;10.20;;;3.97;;
24273;SDS011;12392;42.678;23.380;2023-03-31T05:54:14;18.90;;;8.40;;
24273;SDS011;12392;42.678;23.380;2023-03-31T05:56:40;7.75;;;3.50;;
24273;SDS011;12392;42.678;23.380;2023-03-31T05:59:06;4.78;;;2.90;;
24273;SDS011;12392;42.678;23.380;2023-03-31T06:01:31;7.38;;;2.42;;
24273;SDS011;12392;42.678;23.380;2023-03-31T06:03:57;6.50;;;2.97;;
24273;SDS011;12392;42.678;23.380;2023-03-31T06:06:23;7.75;;;2.90;;
24273;SDS011;12392;42.678;23.380;2023-03-31T06:08:49;4.95;;;3.03;;
24273;SDS011;12392;42.678;23.380;2023-03-31T06:11:16;4.82;;;2.53;;
24273;SDS011;12392;42.678;23.380;2023-03-31T06:13:43;5.40;;;3.13;;
24273;SDS011;12392;42.678;23.380;2023-03-31T06:16:10;5.82;;;2.70;;
24273;SDS011;12392;42.678;23.380;2023-03-31T06:18:37;6.28;;;2.70;;
24273;SDS011;12392;42.678;23.380;2023-03-31T06:21:03;6.93;;;2.85;;
24273;SDS011;12392;42.678;23.380;2023-03-31T06:23:30;6.13;;;2.88;;
24273;SDS011;12392;42.678;23.380;2023-03-31T06:25:59;6.00;;;3.17;;
24273;SDS011;12392;42.678;23.380;2023-03-31T06:28:27;5.88;;;3.05;;
24273;SDS011;12392;42.678;23.380;2023-03-31T06:31:03;7.68;;;3.13;;
24273;SDS011;12392;42.678;23.380;2023-03-31T06:33:30;5.50;;;3.13;;
24273;SDS011;12392;42.678;23.380;2023-03-31T06:35:57;6.15;;;3.13;;
24273;SDS011;12392;42.678;23.380;2023-03-31T06:38:23;6.43;;;2.97;;
24273;SDS011;12392;42.678;23.380;2023-03-31T06:40:50;5.70;;;2.90;;
24273;SDS011;12392;42.678;23.380;2023-03-31T06:43:15;13.45;;;5.88;;
24273;SDS011;12392;42.678;23.380;2023-03-31T06:45:41;4.68;;;3.92;;
24273;SDS011;12392;42.678;23.380;2023-03-31T06:48:07;7.55;;;3.83;;
24273;SDS011;12392;42.678;23.380;2023-03-31T06:50:33;5.65;;;3.08;;
24273;SDS011;12392;42.678;23.380;2023-03-31T06:53:01;6.32;;;3.33;;
24273;SDS011;12392;42.678;23.380;2023-03-31T06:55:26;7.55;;;3.08;;
24273;SDS011;12392;42.678;23.380;2023-03-31T06:57:52;5.60;;;3.97;;
24273;SDS011;12392;42.678;23.380;2023-03-31T07:00:18;10.60;;;6.13;;
24273;SDS011;12392;42.678;23.380;2023-03-31T07:02:43;6.88;;;3.60;;
24273;SDS011;12392;42.678;23.380;2023-03-31T07:05:09;9.75;;;4.47;;
24273;SDS011;12392;42.678;23.380;2023-03-31T07:07:35;9.68;;;4.20;;
24273;SDS011;12392;42.678;23.380;2023-03-31T07:10:00;8.20;;;3.70;;
24273;SDS011;12392;42.678;23.380;2023-03-31T07:12:26;8.07;;;3.90;;
24273;SDS011;12392;42.678;23.380;2023-03-31T07:14:52;12.10;;;3.30;;
24273;SDS011;12392;42.678;23.380;2023-03-31T07:17:18;7.72;;;3.35;;
24273;SDS011;12392;42.678;23.380;2023-03-31T07:19:43;8.68;;;3.38;;
24273;SDS011;12392;42.678;23.380;2023-03-31T07:22:12;15.40;;;4.15;;
24273;SDS011;12392;42.678;23.380;2023-03-31T07:24:38;10.15;;;3.55;;
24273;SDS011;12392;42.678;23.380;2023-03-31T07:27:04;11.48;;;3.92;;
24273;SDS011;12392;42.678;23.380;2023-03-31T07:29:30;12.60;;;4.63;;
24273;SDS011;12392;42.678;23.380;2023-03-31T07:31:56;7.25;;;4.18;;
24273;SDS011;12392;42.678;23.380;2023-03-31T07:34:21;7.95;;;3.95;;
24273;SDS011;12392;42.678;23.380;2023-03-31T07:36:47;11.93;;;4.43;;
24273;SDS011;12392;42.678;23.380;2023-03-31T07:39:13;6.93;;;3.50;;
24273;SDS011;12392;42.678;23.380;2023-03-31T07:41:38;5.95;;;3.55;;
24273;SDS011;12392;42.678;23.380;2023-03-31T07:44:04;16.58;;;9.77;;
24273;SDS011;12392;42.678;23.380;2023-03-31T07:46:30;5.47;;;3.97;;
24273;SDS011;12392;42.678;23.380;2023-03-31T07:48:56;9.60;;;3.65;;
24273;SDS011;12392;42.678;23.380;2023-03-31T07:51:23;7.85;;;4.00;;
24273;SDS011;12392;42.678;23.380;2023-03-31T07:53:50;14.40;;;3.38;;
24273;SDS011;12392;42.678;23.380;2023-03-31T07:56:20;6.03;;;3.58;;
24273;SDS011;12392;42.678;23.380;2023-03-31T07:58:47;7.75;;;4.65;;
24273;SDS011;12392;42.678;23.380;2023-03-31T08:01:14;8.23;;;2.40;;
24273;SDS011;12392;42.678;23.380;2023-03-31T08:03:41;6.90;;;2.80;;
24273;SDS011;12392;42.678;23.380;2023-03-31T08:06:07;4.28;;;2.42;;
24273;SDS011;12392;42.678;23.380;2023-03-31T08:08:33;7.45;;;2.63;;
24273;SDS011;12392;42.678;23.380;2023-03-31T08:11:02;4.93;;;2.53;;
24273;SDS011;12392;42.678;23.380;2023-03-31T08:13:28;3.60;;;2.42;;
24273;SDS011;12392;42.678;23.380;2023-03-31T08:15:54;6.65;;;3.40;;
24273;SDS011;12392;42.678;23.380;2023-03-31T08:18:20;6.95;;;2.38;;
24273;SDS011;12392;42.678;23.380;2023-03-31T08:20:45;6.22;;;2.00;;
24273;SDS011;12392;42.678;23.380;2023-03-31T08:23:14;4.35;;;1.80;;
24273;SDS011;12392;42.678;23.380;2023-03-31T08:25:40;4.68;;;1.90;;
24273;SDS011;12392;42.678;23.380;2023-03-31T08:28:05;5.78;;;2.45;;
24273;SDS011;12392;42.678;23.380;2023-03-31T08:30:35;8.07;;;4.15;;
24273;SDS011;12392;42.678;23.380;2023-03-31T08:33:02;3.38;;;1.75;;
24273;SDS011;12392;42.678;23.380;2023-03-31T08:35:28;5.45;;;2.45;;
24273;SDS011;12392;42.678;23.380;2023-03-31T08:37:53;4.80;;;1.90;;
24273;SDS011;12392;42.678;23.380;2023-03-31T08:40:21;4.07;;;1.58;;
24273;SDS011;12392;42.678;23.380;2023-03-31T08:42:49;8.23;;;2.25;;
24273;SDS011;12392;42.678;23.380;2023-03-31T08:47:46;6.15;;;1.60;;
24273;SDS011;12392;42.678;23.380;2023-03-31T08:50:18;7.60;;;1.92;;
24273;SDS011;12392;42.678;23.380;2023-03-31T08:52:51;4.20;;;1.60;;
24273;SDS011;12392;42.678;23.380;2023-03-31T08:55:24;4.05;;;1.77;;
24273;SDS011;12392;42.678;23.380;2023-03-31T09:00:50;2.95;;;1.50;;
24273;SDS011;12392;42.678;23.380;2023-03-31T09:03:23;8.13;;;2.17;;
24273;SDS011;12392;42.678;23.380;2023-03-31T09:06:05;7.13;;;1.70;;
24273;SDS011;12392;42.678;23.380;2023-03-31T09:08:41;5.95;;;1.92;;
24273;SDS011;12392;42.678;23.380;2023-03-31T09:17:14;3.47;;;1.70;;
24273;SDS011;12392;42.678;23.380;2023-03-31T09:19:51;5.78;;;1.70;;
24273;SDS011;12392;42.678;23.380;2023-03-31T09:22:30;8.10;;;1.83;;
24273;SDS011;12392;42.678;23.380;2023-03-31T09:25:02;1.73;;;1.38;;
24273;SDS011;12392;42.678;23.380;2023-03-31T09:27:31;1.65;;;1.20;;
24273;SDS011;12392;42.678;23.380;2023-03-31T09:30:02;2.00;;;1.45;;
24273;SDS011;12392;42.678;23.380;2023-03-31T09:32:51;7.50;;;1.55;;
24273;SDS011;12392;42.678;23.380;2023-03-31T09:35:36;4.22;;;1.73;;
24273;SDS011;12392;42.678;23.380;2023-03-31T09:38:02;7.10;;;1.38;;
24273;SDS011;12392;42.678;23.380;2023-03-31T09:40:28;8.95;;;1.80;;
24273;SDS011;12392;42.678;23.380;2023-03-31T09:43:07;4.57;;;1.50;;
24273;SDS011;12392;42.678;23.380;2023-03-31T09:45:46;7.07;;;1.80;;
24273;SDS011;12392;42.678;23.380;2023-03-31T09:48:19;3.15;;;1.80;;
24273;SDS011;12392;42.678;23.380;2023-03-31T09:51:12;4.65;;;1.17;;
24273;SDS011;12392;42.678;23.380;2023-03-31T09:53:45;2.38;;;0.93;;
24273;SDS011;12392;42.678;23.380;2023-03-31T09:56:32;8.32;;;1.20;;
24273;SDS011;12392;42.678;23.380;2023-03-31T09:59:14;4.63;;;2.17;;
24273;SDS011;12392;42.678;23.380;2023-03-31T10:01:42;4.35;;;1.63;;
24273;SDS011;12392;42.678;23.380;2023-03-31T10:04:10;4.60;;;3.05;;
24273;SDS011;12392;42.678;23.380;2023-03-31T10:06:43;3.63;;;1.02;;
24273;SDS011;12392;42.678;23.380;2023-03-31T10:09:09;3.22;;;1.33;;
24273;SDS011;12392;42.678;23.380;2023-03-31T10:11:36;6.78;;;1.40;;
24273;SDS011;12392;42.678;23.380;2023-03-31T10:14:14;1.10;;;0.93;;
24273;SDS011;12392;42.678;23.380;2023-03-31T10:16:44;3.70;;;1.50;;
24273;SDS011;12392;42.678;23.380;2023-03-31T10:21:56;4.85;;;1.40;;
24273;SDS011;12392;42.678;23.380;2023-03-31T10:27:33;5.97;;;1.40;;
24273;SDS011;12392;42.678;23.380;2023-03-31T10:30:00;2.00;;;0.77;;
24273;SDS011;12392;42.678;23.380;2023-03-31T10:32:28;3.65;;;1.15;;
24273;SDS011;12392;42.678;23.380;2023-03-31T10:34:55;3.50;;;1.50;;
24273;SDS011;12392;42.678;23.380;2023-03-31T10:37:25;5.05;;;1.40;;
24273;SDS011;12392;42.678;23.380;2023-03-31T10:39:56;9.48;;;1.13;;
24273;SDS011;12392;42.678;23.380;2023-03-31T10:42:34;1.35;;;0.90;;
24273;SDS011;12392;42.678;23.380;2023-03-31T10:47:38;7.88;;;1.73;;
24273;SDS011;12392;42.678;23.380;2023-03-31T10:50:11;3.30;;;1.08;;
24273;SDS011;12392;42.678;23.380;2023-03-31T10:52:45;2.88;;;1.27;;
24273;SDS011;12392;42.678;23.380;2023-03-31T10:55:13;2.70;;;1.15;;
24273;SDS011;12392;42.678;23.380;2023-03-31T10:57:55;11.85;;;1.38;;
24273;SDS011;12392;42.678;23.380;2023-03-31T11:00:26;6.93;;;1.10;;
24273;SDS011;12392;42.678;23.380;2023-03-31T11:14:39;2.28;;;0.90;;
24273;SDS011;12392;42.678;23.380;2023-03-31T11:26:00;6.18;;;1.35;;
24273;SDS011;12392;42.678;23.380;2023-03-31T11:28:34;6.60;;;1.30;;
24273;SDS011;12392;42.678;23.380;2023-03-31T11:34:01;5.68;;;1.50;;
24273;SDS011;12392;42.678;23.380;2023-03-31T11:42:45;2.38;;;1.33;;
24273;SDS011;12392;42.678;23.380;2023-03-31T11:45:24;5.65;;;1.85;;
24273;SDS011;12392;42.678;23.380;2023-03-31T11:47:58;7.43;;;1.67;;
24273;SDS011;12392;42.678;23.380;2023-03-31T11:50:36;2.92;;;1.60;;
24273;SDS011;12392;42.678;23.380;2023-03-31T11:53:11;6.57;;;1.13;;
24273;SDS011;12392;42.678;23.380;2023-03-31T11:55:44;2.10;;;1.05;;
24273;SDS011;12392;42.678;23.380;2023-03-31T11:58:12;4.22;;;1.00;;
24273;SDS011;12392;42.678;23.380;2023-03-31T12:00:59;5.80;;;1.92;;
24273;SDS011;12392;42.678;23.380;2023-03-31T12:03:56;5.38;;;1.20;;
24273;SDS011;12392;42.678;23.380;2023-03-31T12:06:40;3.03;;;0.90;;
24273;SDS011;12392;42.678;23.380;2023-03-31T12:11:52;6.55;;;1.40;;
24273;SDS011;12392;42.678;23.380;2023-03-31T12:17:11;4.70;;;1.05;;
24273;SDS011;12392;42.678;23.380;2023-03-31T12:19:45;2.05;;;1.40;;
24273;SDS011;12392;42.678;23.380;2023-03-31T12:24:58;2.22;;;1.20;;
24273;SDS011;12392;42.678;23.380;2023-03-31T12:27:29;7.93;;;1.23;;
24273;SDS011;12392;42.678;23.380;2023-03-31T12:30:03;4.60;;;1.00;;
24273;SDS011;12392;42.678;23.380;2023-03-31T12:32:34;3.77;;;1.03;;
24273;SDS011;12392;42.678;23.380;2023-03-31T12:35:04;2.47;;;0.88;;
24273;SDS011;12392;42.678;23.380;2023-03-31T12:37:50;5.55;;;1.13;;
24273;SDS011;12392;42.678;23.380;2023-03-31T12:45:49;5.85;;;1.20;;
24273;SDS011;12392;42.678;23.380;2023-03-31T12:51:19;3.42;;;1.00;;
24273;SDS011;12392;42.678;23.380;2023-03-31T12:56:19;1.38;;;0.70;;
24273;SDS011;12392;42.678;23.380;2023-03-31T12:58:45;2.80;;;0.95;;
24273;SDS011;12392;42.678;23.380;2023-03-31T13:03:41;4.13;;;1.40;;
24273;SDS011;12392;42.678;23.380;2023-03-31T13:09:03;5.20;;;1.35;;
24273;SDS011;12392;42.678;23.380;2023-03-31T13:11:44;3.63;;;1.20;;
24273;SDS011;12392;42.678;23.380;2023-03-31T13:14:20;3.65;;;1.25;;
24273;SDS011;12392;42.678;23.380;2023-03-31T13:16:51;5.78;;;1.38;;
24273;SDS011;12392;42.678;23.380;2023-03-31T13:19:51;2.45;;;0.90;;
24273;SDS011;12392;42.678;23.380;2023-03-31T13:28:15;4.40;;;1.13;;
24273;SDS011;12392;42.678;23.380;2023-03-31T13:30:46;4.18;;;1.08;;
24273;SDS011;12392;42.678;23.380;2023-03-31T13:33:13;4.70;;;1.30;;
24273;SDS011;12392;42.678;23.380;2023-03-31T13:35:51;3.15;;;1.45;;
24273;SDS011;12392;42.678;23.380;2023-03-31T13:46:54;3.30;;;1.45;;
24273;SDS011;12392;42.678;23.380;2023-03-31T13:49:42;1.50;;;1.00;;
24273;SDS011;12392;42.678;23.380;2023-03-31T13:52:18;4.13;;;1.10;;
24273;SDS011;12392;42.678;23.380;2023-03-31T13:57:56;2.13;;;1.20;;
24273;SDS011;12392;42.678;23.380;2023-03-31T14:06:10;3.35;;;1.00;;
24273;SDS011;12392;42.678;23.380;2023-03-31T14:08:48;2.08;;;1.10;;
24273;SDS011;12392;42.678;23.380;2023-03-31T14:13:59;6.13;;;1.38;;
24273;SDS011;12392;42.678;23.380;2023-03-31T14:16:31;2.53;;;1.10;;
24273;SDS011;12392;42.678;23.380;2023-03-31T14:24:32;4.18;;;1.02;;
24273;SDS011;12392;42.678;23.380;2023-03-31T14:30:02;3.20;;;0.95;;
24273;SDS011;12392;42.678;23.380;2023-03-31T14:32:44;2.28;;;0.80;;
24273;SDS011;12392;42.678;23.380;2023-03-31T14:35:34;3.55;;;1.20;;
24273;SDS011;12392;42.678;23.380;2023-03-31T14:38:04;6.20;;;1.23;;
24273;SDS011;12392;42.678;23.380;2023-03-31T14:40:36;2.47;;;0.70;;
24273;SDS011;12392;42.678;23.380;2023-03-31T14:43:17;3.13;;;1.20;;
24273;SDS011;12392;42.678;23.380;2023-03-31T14:45:51;4.90;;;0.90;;
24273;SDS011;12392;42.678;23.380;2023-03-31T14:48:25;1.85;;;1.25;;
24273;SDS011;12392;42.678;23.380;2023-03-31T14:50:55;3.70;;;1.23;;
24273;SDS011;12392;42.678;23.380;2023-03-31T14:53:23;4.43;;;1.27;;
24273;SDS011;12392;42.678;23.380;2023-03-31T14:55:50;5.13;;;1.52;;
24273;SDS011;12392;42.678;23.380;2023-03-31T14:58:20;3.55;;;1.02;;
24273;SDS011;12392;42.678;23.380;2023-03-31T15:00:50;4.35;;;3.17;;
24273;SDS011;12392;42.678;23.380;2023-03-31T15:03:16;4.32;;;1.15;;
24273;SDS011;12392;42.678;23.380;2023-03-31T15:05:42;3.45;;;1.55;;
24273;SDS011;12392;42.678;23.380;2023-03-31T15:08:16;4.97;;;1.40;;
24273;SDS011;12392;42.678;23.380;2023-03-31T15:10:54;5.88;;;1.00;;
24273;SDS011;12392;42.678;23.380;2023-03-31T15:13:31;2.78;;;1.27;;
24273;SDS011;12392;42.678;23.380;2023-03-31T15:15:59;2.13;;;1.08;;
24273;SDS011;12392;42.678;23.380;2023-03-31T15:18:42;7.50;;;2.03;;
24273;SDS011;12392;42.678;23.380;2023-03-31T15:21:09;7.90;;;1.48;;
24273;SDS011;12392;42.678;23.380;2023-03-31T15:23:51;1.58;;;1.00;;
24273;SDS011;12392;42.678;23.380;2023-03-31T15:26:17;8.63;;;1.48;;
24273;SDS011;12392;42.678;23.380;2023-03-31T15:28:48;2.17;;;1.20;;
24273;SDS011;12392;42.678;23.380;2023-03-31T15:31:16;4.35;;;1.75;;
24273;SDS011;12392;42.678;23.380;2023-03-31T15:33:42;5.65;;;1.73;;
24273;SDS011;12392;42.678;23.380;2023-03-31T15:36:11;3.25;;;1.70;;
24273;SDS011;12392;42.678;23.380;2023-03-31T15:38:37;7.70;;;2.00;;
24273;SDS011;12392;42.678;23.380;2023-03-31T15:41:03;4.65;;;1.65;;
24273;SDS011;12392;42.678;23.380;2023-03-31T15:46:15;3.60;;;1.65;;
24273;SDS011;12392;42.678;23.380;2023-03-31T15:49:03;2.97;;;1.50;;
24273;SDS011;12392;42.678;23.380;2023-03-31T15:51:32;3.85;;;1.70;;
24273;SDS011;12392;42.678;23.380;2023-03-31T15:54:00;1.77;;;1.10;;
24273;SDS011;12392;42.678;23.380;2023-03-31T15:56:42;6.68;;;2.63;;
24273;SDS011;12392;42.678;23.380;2023-03-31T16:01:47;15.75;;;5.70;;
24273;SDS011;12392;42.678;23.380;2023-03-31T16:04:14;8.80;;;4.45;;
24273;SDS011;12392;42.678;23.380;2023-03-31T16:09:22;4.97;;;2.08;;
24273;SDS011;12392;42.678;23.380;2023-03-31T16:11:55;7.47;;;1.20;;
24273;SDS011;12392;42.678;23.380;2023-03-31T16:14:24;1.90;;;0.90;;
24273;SDS011;12392;42.678;23.380;2023-03-31T16:17:03;2.15;;;0.98;;
24273;SDS011;12392;42.678;23.380;2023-03-31T16:19:38;2.80;;;1.13;;
24273;SDS011;12392;42.678;23.380;2023-03-31T16:22:10;2.45;;;1.17;;
24273;SDS011;12392;42.678;23.380;2023-03-31T16:24:38;2.47;;;0.88;;
24273;SDS011;12392;42.678;23.380;2023-03-31T16:27:04;2.03;;;1.13;;
24273;SDS011;12392;42.678;23.380;2023-03-31T16:29:32;3.60;;;1.08;;
24273;SDS011;12392;42.678;23.380;2023-03-31T16:32:12;7.95;;;1.25;;
24273;SDS011;12392;42.678;23.380;2023-03-31T16:35:01;3.78;;;1.00;;
24273;SDS011;12392;42.678;23.380;2023-03-31T16:37:26;1.40;;;0.80;;
24273;SDS011;12392;42.678;23.380;2023-03-31T16:39:52;1.50;;;1.10;;
24273;SDS011;12392;42.678;23.380;2023-03-31T16:42:18;2.78;;;0.75;;
24273;SDS011;12392;42.678;23.380;2023-03-31T16:44:44;7.93;;;1.45;;
24273;SDS011;12392;42.678;23.380;2023-03-31T16:47:12;4.32;;;1.10;;
24273;SDS011;12392;42.678;23.380;2023-03-31T16:49:38;6.80;;;1.60;;
24273;SDS011;12392;42.678;23.380;2023-03-31T16:52:04;7.70;;;2.42;;
24273;SDS011;12392;42.678;23.380;2023-03-31T16:54:30;12.02;;;3.95;;
24273;SDS011;12392;42.678;23.380;2023-03-31T16:56:56;8.48;;;2.63;;
24273;SDS011;12392;42.678;23.380;2023-03-31T16:59:22;6.53;;;2.97;;
24273;SDS011;12392;42.678;23.380;2023-03-31T17:01:48;6.15;;;2.40;;
24273;SDS011;12392;42.678;23.380;2023-03-31T17:04:15;6.85;;;2.60;;
24273;SDS011;12392;42.678;23.380;2023-03-31T17:06:41;12.75;;;2.58;;
24273;SDS011;12392;42.678;23.380;2023-03-31T17:09:08;12.60;;;2.30;;
24273;SDS011;12392;42.678;23.380;2023-03-31T17:11:34;4.53;;;1.80;;
24273;SDS011;12392;42.678;23.380;2023-03-31T17:14:00;5.45;;;2.20;;
24273;SDS011;12392;42.678;23.380;2023-03-31T17:16:26;6.57;;;1.92;;
24273;SDS011;12392;42.678;23.380;2023-03-31T17:18:52;8.20;;;2.15;;
24273;SDS011;12392;42.678;23.380;2023-03-31T17:21:18;7.28;;;2.53;;
24273;SDS011;12392;42.678;23.380;2023-03-31T17:23:44;8.48;;;2.17;;
24273;SDS011;12392;42.678;23.380;2023-03-31T17:26:11;12.43;;;3.30;;
24273;SDS011;12392;42.678;23.380;2023-03-31T17:28:37;10.23;;;2.28;;
24273;SDS011;12392;42.678;23.380;2023-03-31T17:31:10;15.30;;;3.88;;
24273;SDS011;12392;42.678;23.380;2023-03-31T17:33:35;10.05;;;3.33;;
24273;SDS011;12392;42.678;23.380;2023-03-31T17:36:01;7.82;;;2.13;;
24273;SDS011;12392;42.678;23.380;2023-03-31T17:38:27;13.65;;;3.00;;
24273;SDS011;12392;42.678;23.380;2023-03-31T17:40:54;8.23;;;2.88;;